KBCE

Bryce Canyon Airport

Bryce Canyon, Utah, USA
METAR KBCE 212253Z AUTO 14014KT 10SM CLR 14/09 A3035 RMK AO2 LTG DSNT SE AND S SLP179 T01440094 $
Observed Flight Rules
Aug-21 @ 22:53 UTC (54 minutes ago) Visual Flight Rules
Wind Visibility Clouds
140° at 14 knots 10 miles
  • Clear skies
Temperatures Readings
Current 14°C / 57°F
Dewpoint 9°C / 48°F
Humidity 72%
Altimeter 30.35" Hg
Pressure 1017.9 hPa
Elevation 2312
METAR KBCE 212253Z AUTO 14014KT 10SM CLR 14/09 A3035 RMK AO2 LTG DSNT SE AND S SLP179 T01440094 $
Observed Flight Rules
Aug-21 @ 22:53 UTC
(54 minutes ago)
VFR
Wind Visibility
140° at 14 knots 10 miles
Clouds
  • Clear skies
Temperature Dewpoint
14°C / 57°F 9°C / 48°F
Humidity Altimeter Pressure
72% 30.35" Hg 1017.9 hPa